Arklow Spray — C6VK8 — position and weather

sailwx.info

Track history (hours):
 
Tides and Currents Weather Stations Pressure Air Temp Water Temp Dewpoint Dewpoint Depression Visibility Wind Speed Wind Dir Waves Ship Positions

Arklow Spray

Last reported at 2017-Jan-17 23:32 UTC. Time now 2017-Jan-17 23:38 UTC.
Position N 51°42' E 004°28'.

Length 90 m; draft 3 m.

Type: Cargo ship. MMSI: 309914000.

Date/timePositionNaut miles runAvg speedWind from/ knotsBaromVisibWave heightAir tempDewpointWater temp
2017-Jan-17 23:32N 51°42' E 004°28'4 3.7
2017-Jan-17 22:30N 51°40' E 004°23'8 8.7
2017-Jan-17 21:33N 51°40' E 004°10'1 0.8
2017-Jan-17 20:14N 51°40' E 004°08'7 8.3
2017-Jan-17 19:25N 51°36' E 003°58'7 8.2
2017-Jan-17 18:33N 51°29' E 004°00'3 2.6
2017-Jan-17 17:33N 51°27' E 004°01'7 6.7
2017-Jan-17 16:33N 51°23' E 004°10'8 7.7
2017-Jan-17 15:33N 51°18' E 004°19'6 5.7
2017-Jan-17 14:33N 51°13' E 004°23'6 6.3
2017-Jan-17 13:33N 51°07' E 004°18'2 1.8
2017-Jan-17 12:23N 51°05' E 004°20'2 0.1
2017-Jan-16 02:33N 51°07' E 004°18'5 4.6
2017-Jan-16 01:33N 51°11' E 004°20'6 5.8
2017-Jan-16 00:33N 51°17' E 004°19'8 8.2
2017-Jan-15 23:33N 51°23' E 004°10'7 7.1
2017-Jan-15 22:34N 51°26' E 003°60'8 7.7
2017-Jan-15 21:33N 51°21' E 003°51'7 7.5
2017-Jan-15 20:33N 51°25' E 003°40'7 7.4
2017-Jan-15 19:33N 51°25' E 003°29'8 7.7
2017-Jan-15 18:33N 51°24' E 003°16'9 9.3
2017-Jan-15 17:33N 51°22' E 003°02'1110.6
2017-Jan-15 16:33N 51°22' E 002°45'8 8.2
2017-Jan-15 15:33N 51°22' E 002°32'1211.7
2017-Jan-15 14:33N 51°17' E 002°15'1312.5
2017-Jan-15 13:33N 51°11' E 001°57'1312.8
2017-Jan-15 12:33N 51°03' E 001°41'80 8.9
2017-Jan-15 03:33N 50°21' W 000°05'42 9.7
2017-Jan-14 23:11N 50°30' W 001°10'2112.9
2017-Jan-14 21:33N 50°36' W 001°42'1010.3
2017-Jan-14 20:33N 50°41' W 001°56'3 2.5
2017-Jan-14 19:29N 50°43' W 001°59'0 0.0
2017-Jan-14 18:32N 50°43' W 001°59'0 0.0
2017-Jan-14 17:32N 50°43' W 001°59'0 0.0
2017-Jan-14 16:32N 50°43' W 001°59'0 0.0
2017-Jan-14 15:32N 50°43' W 001°59'0 0.0
2017-Jan-14 14:32N 50°43' W 001°59'0 0.0
2017-Jan-14 13:32N 50°43' W 001°59'0 0.0
2017-Jan-14 12:31N 50°43' W 001°59'0 0.0
2017-Jan-14 11:31N 50°43' W 001°59'0 0.0
2017-Jan-14 10:31N 50°43' W 001°59'0 0.0
2017-Jan-14 09:31N 50°43' W 001°59'0 0.0
2017-Jan-14 08:31N 50°43' W 001°59'0 0.0
2017-Jan-14 07:31N 50°43' W 001°59'0 0.0
2017-Jan-14 06:31N 50°43' W 001°59'0 0.0
2017-Jan-14 05:31N 50°43' W 001°59'0 0.0
2017-Jan-14 04:31N 50°43' W 001°59'0 0.0
2017-Jan-14 03:31N 50°43' W 001°59'0 0.0
2017-Jan-13 23:31N 50°43' W 001°59'0 0.0
2017-Jan-13 22:31N 50°43' W 001°59'0 0.0
2017-Jan-13 21:31N 50°43' W 001°59'0 0.0
2017-Jan-13 20:28N 50°43' W 001°59'0 0.0
2017-Jan-13 19:31N 50°43' W 001°59'0 0.0
2017-Jan-13 18:31N 50°43' W 001°59'2 1.8
2017-Jan-13 17:33N 50°41' W 001°57'2 1.8
2017-Jan-13 16:33N 50°43' W 001°59'0 0.0
2017-Jan-13 15:33N 50°43' W 001°59'0 0.0
2017-Jan-13 14:33N 50°43' W 001°59'0 0.0
2017-Jan-13 13:33N 50°43' W 001°59'0 0.0
2017-Jan-13 12:33N 50°43' W 001°59'0 0.0
2017-Jan-13 11:32N 50°43' W 001°59'0 0.0
2017-Jan-13 10:32N 50°43' W 001°59'0 0.0
2017-Jan-13 09:29N 50°43' W 001°59'0 0.0
2017-Jan-13 08:32N 50°43' W 001°59'0 0.0
2017-Jan-13 07:32N 50°43' W 001°59'0 0.0
2017-Jan-13 06:32N 50°43' W 001°59'0 0.0
2017-Jan-13 05:32N 50°43' W 001°59'0 0.0
2017-Jan-13 04:32N 50°43' W 001°59'0 0.0
2017-Jan-13 03:32N 50°43' W 001°59'0 0.0
2017-Jan-13 02:29N 50°43' W 001°59'0 0.0
2017-Jan-13 01:32N 50°43' W 001°59'0 0.0
2017-Jan-13 00:32N 50°43' W 001°59'0 0.0
2017-Jan-12 23:29N 50°43' W 001°59'0 0.0
2017-Jan-12 22:32N 50°43' W 001°59'0 0.0
2017-Jan-12 21:32N 50°43' W 001°59'0 0.0
2017-Jan-12 20:32N 50°43' W 001°59'0 0.0
2017-Jan-12 19:32N 50°43' W 001°59'0 0.0
2017-Jan-12 18:32N 50°43' W 001°59'0 0.0
2017-Jan-12 17:32N 50°43' W 001°59'0 0.0
2017-Jan-12 16:32N 50°43' W 001°59'0 0.0
2017-Jan-12 15:32N 50°43' W 001°59'0 0.0
2017-Jan-12 14:32N 50°43' W 001°59'0 0.0
2017-Jan-12 13:29N 50°43' W 001°59'0 0.0
2017-Jan-12 12:32N 50°43' W 001°59'0 0.0
2017-Jan-12 11:32N 50°43' W 001°59'0 0.0
2017-Jan-12 10:32N 50°43' W 001°59'0 0.0
2017-Jan-12 09:32N 50°43' W 001°59'0 0.0
2017-Jan-12 08:32N 50°43' W 001°59'0 0.0
2017-Jan-12 07:32N 50°43' W 001°59'0 0.0
2017-Jan-12 06:29N 50°43' W 001°59'0 0.0
2017-Jan-12 05:32N 50°43' W 001°59'0 0.0
2017-Jan-12 04:32N 50°43' W 001°59'0 0.0
2017-Jan-12 03:32N 50°43' W 001°59'0 0.0
2017-Jan-12 02:32N 50°43' W 001°59'0 0.0
2017-Jan-12 01:29N 50°43' W 001°59'0 0.0
2017-Jan-12 00:32N 50°43' W 001°59'0 0.0
2017-Jan-11 23:31N 50°43' W 001°59'0 0.0
2017-Jan-11 22:31N 50°43' W 001°59'0 0.0
2017-Jan-11 21:31N 50°43' W 001°59'0 0.0
2017-Jan-11 20:31N 50°43' W 001°59'0 0.0
2017-Jan-11 19:31N 50°43' W 001°59'0 0.0
2017-Jan-11 18:31N 50°43' W 001°59'0 0.0
2017-Jan-11 17:31N 50°43' W 001°59'0 0.0
2017-Jan-11 16:31N 50°43' W 001°59'0 0.0
2017-Jan-11 15:31N 50°43' W 001°59'0 0.0
2017-Jan-11 14:31N 50°43' W 001°59'0 0.0
2017-Jan-11 13:31N 50°43' W 001°59'0 0.0
2017-Jan-11 12:31N 50°43' W 001°59'0 0.0
2017-Jan-11 11:31N 50°43' W 001°59'0 0.0
2017-Jan-11 10:31N 50°43' W 001°59'0 0.0
2017-Jan-11 09:31N 50°43' W 001°59'0 0.0
2017-Jan-11 08:28N 50°43' W 001°59'0 0.0
2017-Jan-11 07:28N 50°43' W 001°59'0 0.0
2017-Jan-11 06:31N 50°43' W 001°59'0 0.0
2017-Jan-11 05:31N 50°43' W 001°59'0 0.0
2017-Jan-11 04:31N 50°43' W 001°59'0 0.0
2017-Jan-11 03:31N 50°43' W 001°59'0 0.0
2017-Jan-11 02:31N 50°43' W 001°59'0 0.0
2017-Jan-11 01:28N 50°43' W 001°59'0 0.0
2017-Jan-11 00:31N 50°43' W 001°59'0 0.0
2017-Jan-10 23:31N 50°43' W 001°59'0 0.0
2017-Jan-10 22:31N 50°43' W 001°59'0 0.0
2017-Jan-10 21:31N 50°43' W 001°59'0 0.0
2017-Jan-10 20:28N 50°43' W 001°59'0 0.0
2017-Jan-10 19:31N 50°43' W 001°59'0 0.0
2017-Jan-10 18:31N 50°43' W 001°59'0 0.0
2017-Jan-10 17:31N 50°43' W 001°59'0 0.0
2017-Jan-10 16:31N 50°43' W 001°59'0 0.0
2017-Jan-10 15:31N 50°43' W 001°59'0 0.0
2017-Jan-10 14:31N 50°43' W 001°59'0 0.0
2017-Jan-10 13:31N 50°43' W 001°59'0 0.0
2017-Jan-10 12:34N 50°43' W 001°59'0 0.0
2017-Jan-10 11:33N 50°43' W 001°59'0 0.0
2017-Jan-10 10:33N 50°43' W 001°59'0 0.0
2017-Jan-10 09:33N 50°43' W 001°59'0 0.0
2017-Jan-10 08:33N 50°43' W 001°59'0 0.0
2017-Jan-10 07:33N 50°43' W 001°59'0 0.0
2017-Jan-10 06:33N 50°43' W 001°59'0 0.0
2017-Jan-10 05:33N 50°43' W 001°59'0 0.0
2017-Jan-10 04:33N 50°43' W 001°59'0 0.0
2017-Jan-10 03:33N 50°43' W 001°59'0 0.0
2017-Jan-10 02:33N 50°43' W 001°59'0 0.0
2017-Jan-10 01:33N 50°43' W 001°59'0 0.0
2017-Jan-10 00:33N 50°43' W 001°59'0 0.0
2017-Jan-09 23:33N 50°43' W 001°59'0 0.0
2017-Jan-09 22:33N 50°43' W 001°59'0 0.0
2017-Jan-09 21:33N 50°43' W 001°59'0 0.0
2017-Jan-09 20:33N 50°43' W 001°59'0 0.0
2017-Jan-09 19:33N 50°43' W 001°59'0 0.0
2017-Jan-09 18:33N 50°43' W 001°59'0 0.0
2017-Jan-09 17:33N 50°43' W 001°59'0 0.0
2017-Jan-09 16:33N 50°43' W 001°59'0 0.0
2017-Jan-09 15:33N 50°43' W 001°59'0 0.0
2017-Jan-09 14:33N 50°43' W 001°59'0 0.0
2017-Jan-09 13:33N 50°43' W 001°59'0 0.0
2017-Jan-09 12:33N 50°43' W 001°59'0 0.0
2017-Jan-09 11:33N 50°43' W 001°59'0 0.0
2017-Jan-09 10:33N 50°43' W 001°59'0 0.0
2017-Jan-09 09:33N 50°43' W 001°59'0 0.0
2017-Jan-09 08:33N 50°43' W 001°59'0 0.0
2017-Jan-09 07:33N 50°43' W 001°59'0 0.0
2017-Jan-09 06:33N 50°43' W 001°59'0 0.0
2017-Jan-09 05:33N 50°43' W 001°59'0 0.0
2017-Jan-09 04:33N 50°43' W 001°59'0 0.0
2017-Jan-09 03:33N 50°43' W 001°59'0 0.0
2017-Jan-09 02:33N 50°43' W 001°59'0 0.0
2017-Jan-09 01:33N 50°43' W 001°59'0 0.0
2017-Jan-09 00:33N 50°43' W 001°59'0 0.0
2017-Jan-08 23:32N 50°43' W 001°59'0 0.0
2017-Jan-08 22:32N 50°43' W 001°59'0 0.0
2017-Jan-08 21:32N 50°43' W 001°59'0 0.0
2017-Jan-08 20:32N 50°43' W 001°59'0 0.0
2017-Jan-08 19:32N 50°43' W 001°59'0 0.0
2017-Jan-08 18:32N 50°43' W 001°59'0 0.0
2017-Jan-08 17:32N 50°43' W 001°59'3 2.6
2017-Jan-08 16:33N 50°41' W 001°57'2 2.3
2017-Jan-08 15:31N 50°40' W 001°53'0 0.0
2017-Jan-08 14:31N 50°40' W 001°53'0 0.0
2017-Jan-08 13:31N 50°40' W 001°53'0 0.0
2017-Jan-08 12:31N 50°40' W 001°53'0 0.1
2017-Jan-08 11:31N 50°40' W 001°53'0 0.0
2017-Jan-08 10:22N 50°40' W 001°53'0 0.0
2017-Jan-08 09:31N 50°40' W 001°53'0 0.0
2017-Jan-08 08:31N 50°40' W 001°53'0 0.0
2017-Jan-08 07:31N 50°40' W 001°53'0 0.1
2017-Jan-08 06:31N 50°40' W 001°53'0 0.0
2017-Jan-08 05:31N 50°40' W 001°53'0 0.0
2017-Jan-08 04:31N 50°40' W 001°53'0 0.0
2017-Jan-08 03:31N 50°40' W 001°53'0 0.0
2017-Jan-08 02:31N 50°40' W 001°53'0 0.0
2017-Jan-08 01:31N 50°40' W 001°53'0 0.0
2017-Jan-08 00:31N 50°40' W 001°53'  
Track history (hours):
 
Tides and Currents Weather Stations Pressure Air Temp Water Temp Dewpoint Dewpoint Depression Visibility Wind Speed Wind Dir Waves Ship Positions

Arklow Spray

Last reported at 2017-Jan-17 23:32 UTC. Time now 2017-Jan-17 23:38 UTC.
Position N 51°42' E 004°28'.

Length 90 m; draft 3 m.

Type: Cargo ship. MMSI: 309914000.

Date/timePositionNaut miles runAvg speedWind from/ knotsBaromVisibWave heightAir tempDewpointWater temp
2017-Jan-17 23:32N 51°42' E 004°28'4 3.7
2017-Jan-17 22:30N 51°40' E 004°23'8 8.7
2017-Jan-17 21:33N 51°40' E 004°10'1 0.8
2017-Jan-17 20:14N 51°40' E 004°08'7 8.3
2017-Jan-17 19:25N 51°36' E 003°58'7 8.2
2017-Jan-17 18:33N 51°29' E 004°00'3 2.6
2017-Jan-17 17:33N 51°27' E 004°01'7 6.7
2017-Jan-17 16:33N 51°23' E 004°10'8 7.7
2017-Jan-17 15:33N 51°18' E 004°19'6 5.7
2017-Jan-17 14:33N 51°13' E 004°23'6 6.3
2017-Jan-17 13:33N 51°07' E 004°18'2 1.8
2017-Jan-17 12:23N 51°05' E 004°20'2 0.1
2017-Jan-16 02:33N 51°07' E 004°18'5 4.6
2017-Jan-16 01:33N 51°11' E 004°20'6 5.8
2017-Jan-16 00:33N 51°17' E 004°19'8 8.2
2017-Jan-15 23:33N 51°23' E 004°10'7 7.1
2017-Jan-15 22:34N 51°26' E 003°60'8 7.7
2017-Jan-15 21:33N 51°21' E 003°51'7 7.5
2017-Jan-15 20:33N 51°25' E 003°40'7 7.4
2017-Jan-15 19:33N 51°25' E 003°29'8 7.7
2017-Jan-15 18:33N 51°24' E 003°16'9 9.3
2017-Jan-15 17:33N 51°22' E 003°02'1110.6
2017-Jan-15 16:33N 51°22' E 002°45'8 8.2
2017-Jan-15 15:33N 51°22' E 002°32'1211.7
2017-Jan-15 14:33N 51°17' E 002°15'1312.5
2017-Jan-15 13:33N 51°11' E 001°57'1312.8
2017-Jan-15 12:33N 51°03' E 001°41'80 8.9
2017-Jan-15 03:33N 50°21' W 000°05'42 9.7
2017-Jan-14 23:11N 50°30' W 001°10'2112.9
2017-Jan-14 21:33N 50°36' W 001°42'1010.3
2017-Jan-14 20:33N 50°41' W 001°56'3 2.5
2017-Jan-14 19:29N 50°43' W 001°59'0 0.0
2017-Jan-14 18:32N 50°43' W 001°59'0 0.0
2017-Jan-14 17:32N 50°43' W 001°59'0 0.0
2017-Jan-14 16:32N 50°43' W 001°59'0 0.0
2017-Jan-14 15:32N 50°43' W 001°59'0 0.0
2017-Jan-14 14:32N 50°43' W 001°59'0 0.0
2017-Jan-14 13:32N 50°43' W 001°59'0 0.0
2017-Jan-14 12:31N 50°43' W 001°59'0 0.0
2017-Jan-14 11:31N 50°43' W 001°59'0 0.0
2017-Jan-14 10:31N 50°43' W 001°59'0 0.0
2017-Jan-14 09:31N 50°43' W 001°59'0 0.0
2017-Jan-14 08:31N 50°43' W 001°59'0 0.0
2017-Jan-14 07:31N 50°43' W 001°59'0 0.0
2017-Jan-14 06:31N 50°43' W 001°59'0 0.0
2017-Jan-14 05:31N 50°43' W 001°59'0 0.0
2017-Jan-14 04:31N 50°43' W 001°59'0 0.0
2017-Jan-14 03:31N 50°43' W 001°59'0 0.0
2017-Jan-13 23:31N 50°43' W 001°59'0 0.0
2017-Jan-13 22:31N 50°43' W 001°59'0 0.0
2017-Jan-13 21:31N 50°43' W 001°59'0 0.0
2017-Jan-13 20:28N 50°43' W 001°59'0 0.0
2017-Jan-13 19:31N 50°43' W 001°59'0 0.0
2017-Jan-13 18:31N 50°43' W 001°59'2 1.8
2017-Jan-13 17:33N 50°41' W 001°57'2 1.8
2017-Jan-13 16:33N 50°43' W 001°59'0 0.0
2017-Jan-13 15:33N 50°43' W 001°59'0 0.0
2017-Jan-13 14:33N 50°43' W 001°59'0 0.0
2017-Jan-13 13:33N 50°43' W 001°59'0 0.0
2017-Jan-13 12:33N 50°43' W 001°59'0 0.0
2017-Jan-13 11:32N 50°43' W 001°59'0 0.0
2017-Jan-13 10:32N 50°43' W 001°59'0 0.0
2017-Jan-13 09:29N 50°43' W 001°59'0 0.0
2017-Jan-13 08:32N 50°43' W 001°59'0 0.0
2017-Jan-13 07:32N 50°43' W 001°59'0 0.0
2017-Jan-13 06:32N 50°43' W 001°59'0 0.0
2017-Jan-13 05:32N 50°43' W 001°59'0 0.0
2017-Jan-13 04:32N 50°43' W 001°59'0 0.0
2017-Jan-13 03:32N 50°43' W 001°59'0 0.0
2017-Jan-13 02:29N 50°43' W 001°59'0 0.0
2017-Jan-13 01:32N 50°43' W 001°59'0 0.0
2017-Jan-13 00:32N 50°43' W 001°59'0 0.0
2017-Jan-12 23:29N 50°43' W 001°59'0 0.0
2017-Jan-12 22:32N 50°43' W 001°59'0 0.0
2017-Jan-12 21:32N 50°43' W 001°59'0 0.0
2017-Jan-12 20:32N 50°43' W 001°59'0 0.0
2017-Jan-12 19:32N 50°43' W 001°59'0 0.0
2017-Jan-12 18:32N 50°43' W 001°59'0 0.0
2017-Jan-12 17:32N 50°43' W 001°59'0 0.0
2017-Jan-12 16:32N 50°43' W 001°59'0 0.0
2017-Jan-12 15:32N 50°43' W 001°59'0 0.0
2017-Jan-12 14:32N 50°43' W 001°59'0 0.0
2017-Jan-12 13:29N 50°43' W 001°59'0 0.0
2017-Jan-12 12:32N 50°43' W 001°59'0 0.0
2017-Jan-12 11:32N 50°43' W 001°59'0 0.0
2017-Jan-12 10:32N 50°43' W 001°59'0 0.0
2017-Jan-12 09:32N 50°43' W 001°59'0 0.0
2017-Jan-12 08:32N 50°43' W 001°59'0 0.0
2017-Jan-12 07:32N 50°43' W 001°59'0 0.0
2017-Jan-12 06:29N 50°43' W 001°59'0 0.0
2017-Jan-12 05:32N 50°43' W 001°59'0 0.0
2017-Jan-12 04:32N 50°43' W 001°59'0 0.0
2017-Jan-12 03:32N 50°43' W 001°59'0 0.0
2017-Jan-12 02:32N 50°43' W 001°59'0 0.0
2017-Jan-12 01:29N 50°43' W 001°59'0 0.0
2017-Jan-12 00:32N 50°43' W 001°59'0 0.0
2017-Jan-11 23:31N 50°43' W 001°59'0 0.0
2017-Jan-11 22:31N 50°43' W 001°59'0 0.0
2017-Jan-11 21:31N 50°43' W 001°59'0 0.0
2017-Jan-11 20:31N 50°43' W 001°59'0 0.0
2017-Jan-11 19:31N 50°43' W 001°59'0 0.0
2017-Jan-11 18:31N 50°43' W 001°59'0 0.0
2017-Jan-11 17:31N 50°43' W 001°59'0 0.0
2017-Jan-11 16:31N 50°43' W 001°59'0 0.0
2017-Jan-11 15:31N 50°43' W 001°59'0 0.0
2017-Jan-11 14:31N 50°43' W 001°59'0 0.0
2017-Jan-11 13:31N 50°43' W 001°59'0 0.0
2017-Jan-11 12:31N 50°43' W 001°59'0 0.0
2017-Jan-11 11:31N 50°43' W 001°59'0 0.0
2017-Jan-11 10:31N 50°43' W 001°59'0 0.0
2017-Jan-11 09:31N 50°43' W 001°59'0 0.0
2017-Jan-11 08:28N 50°43' W 001°59'0 0.0
2017-Jan-11 07:28N 50°43' W 001°59'0 0.0
2017-Jan-11 06:31N 50°43' W 001°59'0 0.0
2017-Jan-11 05:31N 50°43' W 001°59'0 0.0
2017-Jan-11 04:31N 50°43' W 001°59'0 0.0
2017-Jan-11 03:31N 50°43' W 001°59'0 0.0
2017-Jan-11 02:31N 50°43' W 001°59'0 0.0
2017-Jan-11 01:28N 50°43' W 001°59'0 0.0
2017-Jan-11 00:31N 50°43' W 001°59'0 0.0
2017-Jan-10 23:31N 50°43' W 001°59'0 0.0
2017-Jan-10 22:31N 50°43' W 001°59'0 0.0
2017-Jan-10 21:31N 50°43' W 001°59'0 0.0
2017-Jan-10 20:28N 50°43' W 001°59'0 0.0
2017-Jan-10 19:31N 50°43' W 001°59'0 0.0
2017-Jan-10 18:31N 50°43' W 001°59'0 0.0
2017-Jan-10 17:31N 50°43' W 001°59'0 0.0
2017-Jan-10 16:31N 50°43' W 001°59'0 0.0
2017-Jan-10 15:31N 50°43' W 001°59'0 0.0
2017-Jan-10 14:31N 50°43' W 001°59'0 0.0
2017-Jan-10 13:31N 50°43' W 001°59'0 0.0
2017-Jan-10 12:34N 50°43' W 001°59'0 0.0
2017-Jan-10 11:33N 50°43' W 001°59'0 0.0
2017-Jan-10 10:33N 50°43' W 001°59'0 0.0
2017-Jan-10 09:33N 50°43' W 001°59'0 0.0
2017-Jan-10 08:33N 50°43' W 001°59'0 0.0
2017-Jan-10 07:33N 50°43' W 001°59'0 0.0
2017-Jan-10 06:33N 50°43' W 001°59'0 0.0
2017-Jan-10 05:33N 50°43' W 001°59'0 0.0
2017-Jan-10 04:33N 50°43' W 001°59'0 0.0
2017-Jan-10 03:33N 50°43' W 001°59'0 0.0
2017-Jan-10 02:33N 50°43' W 001°59'0 0.0
2017-Jan-10 01:33N 50°43' W 001°59'0 0.0
2017-Jan-10 00:33N 50°43' W 001°59'0 0.0
2017-Jan-09 23:33N 50°43' W 001°59'0 0.0
2017-Jan-09 22:33N 50°43' W 001°59'0 0.0
2017-Jan-09 21:33N 50°43' W 001°59'0 0.0
2017-Jan-09 20:33N 50°43' W 001°59'0 0.0
2017-Jan-09 19:33N 50°43' W 001°59'0 0.0
2017-Jan-09 18:33N 50°43' W 001°59'0 0.0
2017-Jan-09 17:33N 50°43' W 001°59'0 0.0
2017-Jan-09 16:33N 50°43' W 001°59'0 0.0
2017-Jan-09 15:33N 50°43' W 001°59'0 0.0
2017-Jan-09 14:33N 50°43' W 001°59'0 0.0
2017-Jan-09 13:33N 50°43' W 001°59'0 0.0
2017-Jan-09 12:33N 50°43' W 001°59'0 0.0
2017-Jan-09 11:33N 50°43' W 001°59'0 0.0
2017-Jan-09 10:33N 50°43' W 001°59'0 0.0
2017-Jan-09 09:33N 50°43' W 001°59'0 0.0
2017-Jan-09 08:33N 50°43' W 001°59'0 0.0
2017-Jan-09 07:33N 50°43' W 001°59'0 0.0
2017-Jan-09 06:33N 50°43' W 001°59'0 0.0
2017-Jan-09 05:33N 50°43' W 001°59'0 0.0
2017-Jan-09 04:33N 50°43' W 001°59'0 0.0
2017-Jan-09 03:33N 50°43' W 001°59'0 0.0
2017-Jan-09 02:33N 50°43' W 001°59'0 0.0
2017-Jan-09 01:33N 50°43' W 001°59'0 0.0
2017-Jan-09 00:33N 50°43' W 001°59'0 0.0
2017-Jan-08 23:32N 50°43' W 001°59'0 0.0
2017-Jan-08 22:32N 50°43' W 001°59'0 0.0
2017-Jan-08 21:32N 50°43' W 001°59'0 0.0
2017-Jan-08 20:32N 50°43' W 001°59'0 0.0
2017-Jan-08 19:32N 50°43' W 001°59'0 0.0
2017-Jan-08 18:32N 50°43' W 001°59'0 0.0
2017-Jan-08 17:32N 50°43' W 001°59'3 2.6
2017-Jan-08 16:33N 50°41' W 001°57'2 2.3
2017-Jan-08 15:31N 50°40' W 001°53'0 0.0
2017-Jan-08 14:31N 50°40' W 001°53'0 0.0
2017-Jan-08 13:31N 50°40' W 001°53'0 0.0
2017-Jan-08 12:31N 50°40' W 001°53'0 0.1
2017-Jan-08 11:31N 50°40' W 001°53'0 0.0
2017-Jan-08 10:22N 50°40' W 001°53'0 0.0
2017-Jan-08 09:31N 50°40' W 001°53'0 0.0
2017-Jan-08 08:31N 50°40' W 001°53'0 0.0
2017-Jan-08 07:31N 50°40' W 001°53'0 0.1
2017-Jan-08 06:31N 50°40' W 001°53'0 0.0
2017-Jan-08 05:31N 50°40' W 001°53'0 0.0
2017-Jan-08 04:31N 50°40' W 001°53'0 0.0
2017-Jan-08 03:31N 50°40' W 001°53'0 0.0
2017-Jan-08 02:31N 50°40' W 001°53'0 0.0
2017-Jan-08 01:31N 50°40' W 001°53'0 0.0
2017-Jan-08 00:31N 50°40' W 001°53'  

Dump ship's entire track history